sensor_id;sensor_type;location;lat;lon;timestamp;temperature;humidity
78479;SHT31;67769;51.972;5.668;2023-05-02T08:24:42;16.7;41.7
78479;SHT31;67769;51.972;5.668;2023-05-02T08:27:11;16.8;42.0
78479;SHT31;67769;51.972;5.668;2023-05-02T08:29:41;16.9;41.6
78479;SHT31;67769;51.972;5.668;2023-05-02T08:32:11;17.0;42.4
78479;SHT31;67769;51.972;5.668;2023-05-02T08:34:40;17.1;40.7
78479;SHT31;67769;51.972;5.668;2023-05-02T08:37:10;17.2;40.2
78479;SHT31;67769;51.972;5.668;2023-05-02T08:39:40;17.3;40.3
78479;SHT31;67769;51.972;5.668;2023-05-02T08:42:09;17.4;40.2
78479;SHT31;67769;51.972;5.668;2023-05-02T08:44:39;17.7;39.5
78479;SHT31;67769;51.972;5.668;2023-05-02T08:47:12;17.9;39.3
78479;SHT31;67769;51.972;5.668;2023-05-02T08:49:43;18.2;36.5
78479;SHT31;67769;51.972;5.668;2023-05-02T08:52:15;18.4;37.0
78479;SHT31;67769;51.972;5.668;2023-05-02T08:54:46;18.5;36.0
78479;SHT31;67769;51.972;5.668;2023-05-02T08:57:18;18.6;35.2
78479;SHT31;67769;51.972;5.668;2023-05-02T08:59:47;18.6;34.8
78479;SHT31;67769;51.972;5.668;2023-05-02T09:02:38;18.6;34.6
78479;SHT31;67769;51.972;5.668;2023-05-02T09:05:00;18.6;35.7
78479;SHT31;67769;51.972;5.668;2023-05-02T09:07:45;18.5;35.3
78479;SHT31;67769;51.972;5.668;2023-05-02T09:10:15;18.4;36.3
78479;SHT31;67769;51.972;5.668;2023-05-02T09:12:46;18.3;36.1
78479;SHT31;67769;51.972;5.668;2023-05-02T09:15:16;18.3;35.7
78479;SHT31;67769;51.972;5.668;2023-05-02T09:17:47;18.2;36.0
78479;SHT31;67769;51.972;5.668;2023-05-02T09:20:17;18.1;36.6
78479;SHT31;67769;51.972;5.668;2023-05-02T09:22:51;18.0;35.6
78479;SHT31;67769;51.972;5.668;2023-05-02T09:25:21;17.9;34.2
78479;SHT31;67769;51.972;5.668;2023-05-02T09:27:53;17.8;35.4
78479;SHT31;67769;51.972;5.668;2023-05-02T09:30:25;17.7;35.2
78479;SHT31;67769;51.972;5.668;2023-05-02T09:32:54;17.6;35.4
78479;SHT31;67769;51.972;5.668;2023-05-02T09:35:24;17.5;35.0
78479;SHT31;67769;51.972;5.668;2023-05-02T09:37:56;17.5;37.6
78479;SHT31;67769;51.972;5.668;2023-05-02T09:40:26;17.4;37.2
78479;SHT31;67769;51.972;5.668;2023-05-02T09:42:56;17.5;36.3
78479;SHT31;67769;51.972;5.668;2023-05-02T09:45:26;17.5;36.3
78479;SHT31;67769;51.972;5.668;2023-05-02T09:48:02;17.6;34.9
78479;SHT31;67769;51.972;5.668;2023-05-02T09:50:33;17.6;34.3
78479;SHT31;67769;51.972;5.668;2023-05-02T09:53:05;17.7;33.3
78479;SHT31;67769;51.972;5.668;2023-05-02T09:55:36;17.7;34.3
78479;SHT31;67769;51.972;5.668;2023-05-02T09:58:07;17.8;34.0
78479;SHT31;67769;51.972;5.668;2023-05-02T10:00:44;17.8;35.0
78479;SHT31;67769;51.972;5.668;2023-05-02T10:03:15;17.9;35.9
78479;SHT31;67769;51.972;5.668;2023-05-02T10:05:46;18.0;33.1
78479;SHT31;67769;51.972;5.668;2023-05-02T10:08:17;18.1;33.7
78479;SHT31;67769;51.972;5.668;2023-05-02T10:10:51;18.1;33.3
78479;SHT31;67769;51.972;5.668;2023-05-02T10:13:25;18.2;33.3
78479;SHT31;67769;51.972;5.668;2023-05-02T10:16:01;18.3;32.0
78479;SHT31;67769;51.972;5.668;2023-05-02T10:18:41;18.3;32.7
78479;SHT31;67769;51.972;5.668;2023-05-02T10:21:19;18.3;33.8
78479;SHT31;67769;51.972;5.668;2023-05-02T10:23:52;18.3;33.0
78479;SHT31;67769;51.972;5.668;2023-05-02T10:26:22;18.3;32.7
78479;SHT31;67769;51.972;5.668;2023-05-02T10:28:56;18.4;35.2
78479;SHT31;67769;51.972;5.668;2023-05-02T10:31:29;18.4;34.1
78479;SHT31;67769;51.972;5.668;2023-05-02T10:34:05;18.5;34.2
78479;SHT31;67769;51.972;5.668;2023-05-02T10:36:37;18.6;35.0
78479;SHT31;67769;51.972;5.668;2023-05-02T10:39:07;18.8;34.2
78479;SHT31;67769;51.972;5.668;2023-05-02T10:41:40;18.9;34.8
78479;SHT31;67769;51.972;5.668;2023-05-02T10:44:12;19.1;33.6
78479;SHT31;67769;51.972;5.668;2023-05-02T10:46:43;19.2;34.3
78479;SHT31;67769;51.972;5.668;2023-05-02T10:49:14;19.4;33.8
78479;SHT31;67769;51.972;5.668;2023-05-02T10:51:44;19.6;33.2
78479;SHT31;67769;51.972;5.668;2023-05-02T10:54:20;19.8;32.8
78479;SHT31;67769;51.972;5.668;2023-05-02T10:57:03;20.0;32.4
78479;SHT31;67769;51.972;5.668;2023-05-02T10:59:36;20.2;31.2
78479;SHT31;67769;51.972;5.668;2023-05-02T11:02:54;20.4;32.1
78479;SHT31;67769;51.972;5.668;2023-05-02T11:05:25;20.6;30.9
78479;SHT31;67769;51.972;5.668;2023-05-02T11:08:29;20.7;31.1
78479;SHT31;67769;51.972;5.668;2023-05-02T11:11:38;20.9;30.9
78479;SHT31;67769;51.972;5.668;2023-05-02T11:14:10;21.0;30.1
78479;SHT31;67769;51.972;5.668;2023-05-02T11:17:08;21.1;29.0
78479;SHT31;67769;51.972;5.668;2023-05-02T11:21:53;21.1;30.2
78479;SHT31;67769;51.972;5.668;2023-05-02T11:24:41;21.0;28.9
78479;SHT31;67769;51.972;5.668;2023-05-02T11:27:38;21.0;28.7
78479;SHT31;67769;51.972;5.668;2023-05-02T11:30:10;21.0;30.3
78479;SHT31;67769;51.972;5.668;2023-05-02T11:33:17;21.0;29.9
78479;SHT31;67769;51.972;5.668;2023-05-02T11:35:47;21.0;30.5
78479;SHT31;67769;51.972;5.668;2023-05-02T11:38:19;21.0;29.8
78479;SHT31;67769;51.972;5.668;2023-05-02T11:40:55;21.0;30.5
78479;SHT31;67769;51.972;5.668;2023-05-02T11:43:26;21.0;29.5
78479;SHT31;67769;51.972;5.668;2023-05-02T11:45:57;21.1;30.0
78479;SHT31;67769;51.972;5.668;2023-05-02T11:48:30;21.1;29.7
78479;SHT31;67769;51.972;5.668;2023-05-02T11:51:00;21.2;30.3
78479;SHT31;67769;51.972;5.668;2023-05-02T11:53:32;21.2;28.5
78479;SHT31;67769;51.972;5.668;2023-05-02T11:56:03;21.2;29.1
78479;SHT31;67769;51.972;5.668;2023-05-02T11:58:33;21.2;29.1
78479;SHT31;67769;51.972;5.668;2023-05-02T12:01:13;21.2;30.5
78479;SHT31;67769;51.972;5.668;2023-05-02T12:03:43;21.3;28.0
78479;SHT31;67769;51.972;5.668;2023-05-02T12:06:16;21.3;29.4
78479;SHT31;67769;51.972;5.668;2023-05-02T12:08:47;21.2;28.0
78479;SHT31;67769;51.972;5.668;2023-05-02T12:11:22;21.2;29.4
78479;SHT31;67769;51.972;5.668;2023-05-02T12:13:53;21.2;28.8
78479;SHT31;67769;51.972;5.668;2023-05-02T12:16:23;21.2;28.6
78479;SHT31;67769;51.972;5.668;2023-05-02T12:18:53;21.2;29.1
78479;SHT31;67769;51.972;5.668;2023-05-02T12:21:27;21.1;28.9
78479;SHT31;67769;51.972;5.668;2023-05-02T12:24:00;21.2;29.0
78479;SHT31;67769;51.972;5.668;2023-05-02T12:26:30;21.2;30.4
78479;SHT31;67769;51.972;5.668;2023-05-02T12:29:00;21.2;30.2
78479;SHT31;67769;51.972;5.668;2023-05-02T12:31:30;21.3;30.0
78479;SHT31;67769;51.972;5.668;2023-05-02T12:33:59;21.4;29.0
78479;SHT31;67769;51.972;5.668;2023-05-02T12:36:29;21.4;29.9
78479;SHT31;67769;51.972;5.668;2023-05-02T12:39:00;21.5;29.4
78479;SHT31;67769;51.972;5.668;2023-05-02T12:41:33;21.5;29.2
78479;SHT31;67769;51.972;5.668;2023-05-02T12:44:04;21.5;28.8
78479;SHT31;67769;51.972;5.668;2023-05-02T12:46:34;21.5;28.5
78479;SHT31;67769;51.972;5.668;2023-05-02T12:49:06;21.5;29.5
78479;SHT31;67769;51.972;5.668;2023-05-02T12:51:37;21.4;29.7
78479;SHT31;67769;51.972;5.668;2023-05-02T12:54:07;21.4;28.6
78479;SHT31;67769;51.972;5.668;2023-05-02T12:56:40;21.4;29.1
78479;SHT31;67769;51.972;5.668;2023-05-02T12:59:26;21.3;28.9
78479;SHT31;67769;51.972;5.668;2023-05-02T13:01:56;21.3;29.0
78479;SHT31;67769;51.972;5.668;2023-05-02T13:04:35;21.3;28.0
78479;SHT31;67769;51.972;5.668;2023-05-02T13:07:05;21.3;28.9
78479;SHT31;67769;51.972;5.668;2023-05-02T13:09:35;21.3;29.1
78479;SHT31;67769;51.972;5.668;2023-05-02T13:12:05;21.2;28.8
78479;SHT31;67769;51.972;5.668;2023-05-02T13:14:35;21.2;29.1
78479;SHT31;67769;51.972;5.668;2023-05-02T13:17:05;21.1;28.7
78479;SHT31;67769;51.972;5.668;2023-05-02T13:19:35;21.1;28.2
78479;SHT31;67769;51.972;5.668;2023-05-02T13:22:05;21.1;29.5
78479;SHT31;67769;51.972;5.668;2023-05-02T13:24:35;21.1;29.3
78479;SHT31;67769;51.972;5.668;2023-05-02T13:27:04;21.1;29.3
78479;SHT31;67769;51.972;5.668;2023-05-02T13:29:34;21.0;29.2
78479;SHT31;67769;51.972;5.668;2023-05-02T13:32:03;21.0;29.7
78479;SHT31;67769;51.972;5.668;2023-05-02T13:34:35;21.0;29.7
78479;SHT31;67769;51.972;5.668;2023-05-02T13:37:05;21.0;31.0
78479;SHT31;67769;51.972;5.668;2023-05-02T13:39:34;21.0;29.7
78479;SHT31;67769;51.972;5.668;2023-05-02T13:42:04;21.0;29.5
78479;SHT31;67769;51.972;5.668;2023-05-02T13:44:34;21.0;28.8
78479;SHT31;67769;51.972;5.668;2023-05-02T13:47:04;21.0;30.0
78479;SHT31;67769;51.972;5.668;2023-05-02T13:49:34;21.0;28.8
78479;SHT31;67769;51.972;5.668;2023-05-02T13:52:03;21.0;29.6
78479;SHT31;67769;51.972;5.668;2023-05-02T13:54:33;20.9;29.4
78479;SHT31;67769;51.972;5.668;2023-05-02T13:57:03;20.9;30.4
78479;SHT31;67769;51.972;5.668;2023-05-02T13:59:33;20.9;28.7
78479;SHT31;67769;51.972;5.668;2023-05-02T14:02:03;20.9;28.6
78479;SHT31;67769;51.972;5.668;2023-05-02T14:04:34;20.9;29.2
78479;SHT31;67769;51.972;5.668;2023-05-02T14:07:06;20.9;28.2
78479;SHT31;67769;51.972;5.668;2023-05-02T14:09:35;20.9;29.4
78479;SHT31;67769;51.972;5.668;2023-05-02T14:12:05;20.8;29.1
78479;SHT31;67769;51.972;5.668;2023-05-02T14:14:35;20.8;29.4
78479;SHT31;67769;51.972;5.668;2023-05-02T14:17:05;20.8;29.9
78479;SHT31;67769;51.972;5.668;2023-05-02T14:19:35;20.8;29.3
78479;SHT31;67769;51.972;5.668;2023-05-02T14:22:06;20.8;28.8
78479;SHT31;67769;51.972;5.668;2023-05-02T14:24:36;20.7;28.6
78479;SHT31;67769;51.972;5.668;2023-05-02T14:27:05;20.7;28.5
78479;SHT31;67769;51.972;5.668;2023-05-02T14:29:39;20.7;30.0
78479;SHT31;67769;51.972;5.668;2023-05-02T14:32:09;20.6;30.1
78479;SHT31;67769;51.972;5.668;2023-05-02T14:34:39;20.6;29.3
78479;SHT31;67769;51.972;5.668;2023-05-02T14:37:08;20.6;29.5
78479;SHT31;67769;51.972;5.668;2023-05-02T14:39:38;20.6;29.3
78479;SHT31;67769;51.972;5.668;2023-05-02T14:42:10;20.5;29.5
78479;SHT31;67769;51.972;5.668;2023-05-02T14:44:40;20.5;29.4
78479;SHT31;67769;51.972;5.668;2023-05-02T14:47:10;20.5;30.0
78479;SHT31;67769;51.972;5.668;2023-05-02T14:49:40;20.5;29.4
78479;SHT31;67769;51.972;5.668;2023-05-02T14:52:10;20.5;29.7
78479;SHT31;67769;51.972;5.668;2023-05-02T14:54:39;20.4;30.0
78479;SHT31;67769;51.972;5.668;2023-05-02T14:57:09;20.4;30.7
78479;SHT31;67769;51.972;5.668;2023-05-02T14:59:41;20.3;30.2
78479;SHT31;67769;51.972;5.668;2023-05-02T15:02:10;20.3;30.5
78479;SHT31;67769;51.972;5.668;2023-05-02T15:04:40;20.3;30.3
78479;SHT31;67769;51.972;5.668;2023-05-02T15:07:10;20.2;30.3
78479;SHT31;67769;51.972;5.668;2023-05-02T15:09:40;20.2;30.1
78479;SHT31;67769;51.972;5.668;2023-05-02T15:12:09;20.2;29.9
78479;SHT31;67769;51.972;5.668;2023-05-02T15:14:39;20.1;30.5
78479;SHT31;67769;51.972;5.668;2023-05-02T15:17:08;20.0;30.3
78479;SHT31;67769;51.972;5.668;2023-05-02T15:19:38;20.0;31.0
78479;SHT31;67769;51.972;5.668;2023-05-02T15:22:08;19.9;30.5
78479;SHT31;67769;51.972;5.668;2023-05-02T15:24:37;19.9;31.3
78479;SHT31;67769;51.972;5.668;2023-05-02T15:27:07;19.8;30.7
78479;SHT31;67769;51.972;5.668;2023-05-02T15:29:37;19.7;30.7
78479;SHT31;67769;51.972;5.668;2023-05-02T15:32:07;19.7;30.1
78479;SHT31;67769;51.972;5.668;2023-05-02T15:34:36;19.6;31.5
78479;SHT31;67769;51.972;5.668;2023-05-02T15:37:06;19.5;31.4
78479;SHT31;67769;51.972;5.668;2023-05-02T15:39:36;19.4;31.4
78479;SHT31;67769;51.972;5.668;2023-05-02T15:42:05;19.4;30.7
78479;SHT31;67769;51.972;5.668;2023-05-02T15:44:35;19.4;31.7
78479;SHT31;67769;51.972;5.668;2023-05-02T15:47:05;19.3;31.7
78479;SHT31;67769;51.972;5.668;2023-05-02T15:49:34;19.3;31.1
78479;SHT31;67769;51.972;5.668;2023-05-02T15:52:04;19.3;32.1
78479;SHT31;67769;51.972;5.668;2023-05-02T15:54:33;19.2;31.4
78479;SHT31;67769;51.972;5.668;2023-05-02T15:57:05;19.2;32.5
78479;SHT31;67769;51.972;5.668;2023-05-02T15:59:35;19.2;32.0
78479;SHT31;67769;51.972;5.668;2023-05-02T16:02:07;19.1;31.6
78479;SHT31;67769;51.972;5.668;2023-05-02T16:04:37;19.1;31.2
78479;SHT31;67769;51.972;5.668;2023-05-02T16:07:06;19.1;31.3
78479;SHT31;67769;51.972;5.668;2023-05-02T16:09:36;19.0;31.7
78479;SHT31;67769;51.972;5.668;2023-05-02T16:12:08;19.0;31.1
78479;SHT31;67769;51.972;5.668;2023-05-02T16:14:38;18.9;32.3
78479;SHT31;67769;51.972;5.668;2023-05-02T16:17:08;18.9;32.5
78479;SHT31;67769;51.972;5.668;2023-05-02T16:19:37;18.8;31.3
78479;SHT31;67769;51.972;5.668;2023-05-02T16:22:07;18.8;32.2
78479;SHT31;67769;51.972;5.668;2023-05-02T16:24:37;18.8;32.3
78479;SHT31;67769;51.972;5.668;2023-05-02T16:27:08;18.7;32.0
78479;SHT31;67769;51.972;5.668;2023-05-02T16:29:38;18.7;32.2
78479;SHT31;67769;51.972;5.668;2023-05-02T16:32:08;18.6;32.0
78479;SHT31;67769;51.972;5.668;2023-05-02T16:34:38;18.6;31.8
78479;SHT31;67769;51.972;5.668;2023-05-02T16:37:09;18.6;32.5
78479;SHT31;67769;51.972;5.668;2023-05-02T16:39:40;18.5;32.1
78479;SHT31;67769;51.972;5.668;2023-05-02T16:42:10;18.5;31.6
78479;SHT31;67769;51.972;5.668;2023-05-02T16:44:41;18.4;33.0
78479;SHT31;67769;51.972;5.668;2023-05-02T16:47:11;18.4;32.9
78479;SHT31;67769;51.972;5.668;2023-05-02T16:49:41;18.3;32.5
78479;SHT31;67769;51.972;5.668;2023-05-02T16:52:10;18.2;33.0
78479;SHT31;67769;51.972;5.668;2023-05-02T16:54:40;18.2;32.5
78479;SHT31;67769;51.972;5.668;2023-05-02T16:57:10;18.1;31.6
78479;SHT31;67769;51.972;5.668;2023-05-02T16:59:44;18.1;32.3
78479;SHT31;67769;51.972;5.668;2023-05-02T17:02:15;18.0;33.1
78479;SHT31;67769;51.972;5.668;2023-05-02T17:04:47;18.0;33.5
78479;SHT31;67769;51.972;5.668;2023-05-02T17:07:18;17.9;33.5
78479;SHT31;67769;51.972;5.668;2023-05-02T17:09:47;17.9;33.6
78479;SHT31;67769;51.972;5.668;2023-05-02T17:12:17;17.8;32.9
78479;SHT31;67769;51.972;5.668;2023-05-02T17:14:48;17.7;33.2
78479;SHT31;67769;51.972;5.668;2023-05-02T17:17:20;17.7;33.2
78479;SHT31;67769;51.972;5.668;2023-05-02T17:19:50;17.6;33.7
78479;SHT31;67769;51.972;5.668;2023-05-02T17:22:19;17.5;34.1
78479;SHT31;67769;51.972;5.668;2023-05-02T17:24:49;17.5;34.5
78479;SHT31;67769;51.972;5.668;2023-05-02T17:27:20;17.4;34.1
78479;SHT31;67769;51.972;5.668;2023-05-02T17:29:50;17.4;34.4
78479;SHT31;67769;51.972;5.668;2023-05-02T17:32:19;17.4;34.3
78479;SHT31;67769;51.972;5.668;2023-05-02T17:34:49;17.4;33.9
78479;SHT31;67769;51.972;5.668;2023-05-02T17:37:19;17.3;33.6
78479;SHT31;67769;51.972;5.668;2023-05-02T17:39:48;17.2;34.4
78479;SHT31;67769;51.972;5.668;2023-05-02T17:42:18;17.2;34.0
78479;SHT31;67769;51.972;5.668;2023-05-02T17:44:47;17.1;34.2
78479;SHT31;67769;51.972;5.668;2023-05-02T17:47:17;17.0;34.3
78479;SHT31;67769;51.972;5.668;2023-05-02T17:49:48;16.9;34.6
78479;SHT31;67769;51.972;5.668;2023-05-02T17:52:19;16.8;34.8
78479;SHT31;67769;51.972;5.668;2023-05-02T17:54:49;16.8;34.8
78479;SHT31;67769;51.972;5.668;2023-05-02T17:57:19;16.7;34.6
78479;SHT31;67769;51.972;5.668;2023-05-02T17:59:49;16.6;35.4
78479;SHT31;67769;51.972;5.668;2023-05-02T18:02:22;16.5;35.1
78479;SHT31;67769;51.972;5.668;2023-05-02T18:04:53;16.4;36.0
78479;SHT31;67769;51.972;5.668;2023-05-02T18:07:24;16.3;35.6
78479;SHT31;67769;51.972;5.668;2023-05-02T18:09:57;16.2;36.0
78479;SHT31;67769;51.972;5.668;2023-05-02T18:12:31;16.1;36.1
78479;SHT31;67769;51.972;5.668;2023-05-02T18:15:01;16.0;36.3
78479;SHT31;67769;51.972;5.668;2023-05-02T18:17:31;15.9;37.0
78479;SHT31;67769;51.972;5.668;2023-05-02T18:20:01;15.9;37.3
78479;SHT31;67769;51.972;5.668;2023-05-02T18:22:33;15.8;37.2
78479;SHT31;67769;51.972;5.668;2023-05-02T18:25:03;15.7;37.3
78479;SHT31;67769;51.972;5.668;2023-05-02T18:27:32;15.6;37.4
78479;SHT31;67769;51.972;5.668;2023-05-02T18:30:02;15.5;37.8
78479;SHT31;67769;51.972;5.668;2023-05-02T18:32:34;15.4;37.5
78479;SHT31;67769;51.972;5.668;2023-05-02T18:35:06;15.3;37.7
78479;SHT31;67769;51.972;5.668;2023-05-02T18:37:37;15.3;37.8
78479;SHT31;67769;51.972;5.668;2023-05-02T18:40:08;15.2;38.0
78479;SHT31;67769;51.972;5.668;2023-05-02T18:42:38;15.2;38.4
78479;SHT31;67769;51.972;5.668;2023-05-02T18:45:08;15.1;38.3
78479;SHT31;67769;51.972;5.668;2023-05-02T18:47:38;15.1;38.3
78479;SHT31;67769;51.972;5.668;2023-05-02T18:50:09;15.0;38.4
78479;SHT31;67769;51.972;5.668;2023-05-02T18:52:38;14.9;38.5
78479;SHT31;67769;51.972;5.668;2023-05-02T18:55:08;14.9;38.6
78479;SHT31;67769;51.972;5.668;2023-05-02T18:57:38;14.9;38.8
78479;SHT31;67769;51.972;5.668;2023-05-02T19:00:08;14.8;39.0
78479;SHT31;67769;51.972;5.668;2023-05-02T19:02:38;14.8;39.3
78479;SHT31;67769;51.972;5.668;2023-05-02T19:05:10;14.8;39.6
78479;SHT31;67769;51.972;5.668;2023-05-02T19:07:42;14.7;39.9
78479;SHT31;67769;51.972;5.668;2023-05-02T19:10:12;14.7;40.2
78479;SHT31;67769;51.972;5.668;2023-05-02T19:12:42;14.6;40.3
78479;SHT31;67769;51.972;5.668;2023-05-02T19:15:14;14.6;40.6
78479;SHT31;67769;51.972;5.668;2023-05-02T19:17:45;14.5;40.8
78479;SHT31;67769;51.972;5.668;2023-05-02T19:20:18;14.4;41.1
78479;SHT31;67769;51.972;5.668;2023-05-02T19:22:48;14.4;41.3
78479;SHT31;67769;51.972;5.668;2023-05-02T19:25:18;14.3;41.6
78479;SHT31;67769;51.972;5.668;2023-05-02T19:27:48;14.3;42.0
78479;SHT31;67769;51.972;5.668;2023-05-02T19:30:19;14.2;42.0
78479;SHT31;67769;51.972;5.668;2023-05-02T19:32:49;14.1;42.1
78479;SHT31;67769;51.972;5.668;2023-05-02T19:35:20;14.1;44.7
78479;SHT31;67769;51.972;5.668;2023-05-02T19:37:49;14.1;44.6
78479;SHT31;67769;51.972;5.668;2023-05-02T19:40:21;14.0;44.3
78479;SHT31;67769;51.972;5.668;2023-05-02T19:42:50;14.0;44.3
78479;SHT31;67769;51.972;5.668;2023-05-02T19:45:22;14.0;43.1
78479;SHT31;67769;51.972;5.668;2023-05-02T19:47:51;14.0;43.0
78479;SHT31;67769;51.972;5.668;2023-05-02T19:50:21;14.0;43.1
78479;SHT31;67769;51.972;5.668;2023-05-02T19:52:51;13.9;43.3
78479;SHT31;67769;51.972;5.668;2023-05-02T19:55:20;13.9;43.4
78479;SHT31;67769;51.972;5.668;2023-05-02T19:57:50;13.9;43.5
78479;SHT31;67769;51.972;5.668;2023-05-02T20:00:20;13.8;43.7
78479;SHT31;67769;51.972;5.668;2023-05-02T20:02:50;13.8;43.8
78479;SHT31;67769;51.972;5.668;2023-05-02T20:05:20;13.7;44.4
78479;SHT31;67769;51.972;5.668;2023-05-02T20:07:49;13.7;44.2
78479;SHT31;67769;51.972;5.668;2023-05-02T20:10:19;13.6;44.5
78479;SHT31;67769;51.972;5.668;2023-05-02T20:12:48;13.6;44.6
78479;SHT31;67769;51.972;5.668;2023-05-02T20:15:18;13.5;44.7
78479;SHT31;67769;51.972;5.668;2023-05-02T20:17:48;13.5;44.8
78479;SHT31;67769;51.972;5.668;2023-05-02T20:20:18;13.4;45.2
78479;SHT31;67769;51.972;5.668;2023-05-02T20:22:47;13.4;44.8
78479;SHT31;67769;51.972;5.668;2023-05-02T20:25:17;13.4;45.2
78479;SHT31;67769;51.972;5.668;2023-05-02T20:27:49;13.3;45.8
78479;SHT31;67769;51.972;5.668;2023-05-02T20:30:19;13.3;45.6
78479;SHT31;67769;51.972;5.668;2023-05-02T20:32:49;13.2;45.6
78479;SHT31;67769;51.972;5.668;2023-05-02T20:35:21;13.2;45.7
78479;SHT31;67769;51.972;5.668;2023-05-02T20:37:52;13.2;45.9
78479;SHT31;67769;51.972;5.668;2023-05-02T20:40:22;13.1;46.5
78479;SHT31;67769;51.972;5.668;2023-05-02T20:42:56;13.1;46.1
78479;SHT31;67769;51.972;5.668;2023-05-02T20:45:27;13.1;45.9
78479;SHT31;67769;51.972;5.668;2023-05-02T20:47:59;13.1;45.7
78479;SHT31;67769;51.972;5.668;2023-05-02T20:50:28;13.0;46.1
78479;SHT31;67769;51.972;5.668;2023-05-02T20:52:58;13.0;46.1
78479;SHT31;67769;51.972;5.668;2023-05-02T20:55:28;12.9;46.2
78479;SHT31;67769;51.972;5.668;2023-05-02T20:57:58;12.9;46.1
78479;SHT31;67769;51.972;5.668;2023-05-02T21:00:27;12.9;46.6
78479;SHT31;67769;51.972;5.668;2023-05-02T21:02:57;12.8;46.5
78479;SHT31;67769;51.972;5.668;2023-05-02T21:05:27;12.8;47.1
78479;SHT31;67769;51.972;5.668;2023-05-02T21:07:58;12.7;47.3
78479;SHT31;67769;51.972;5.668;2023-05-02T21:10:30;12.7;47.2
78479;SHT31;67769;51.972;5.668;2023-05-02T21:13:00;12.7;47.4
78479;SHT31;67769;51.972;5.668;2023-05-02T21:15:33;12.7;46.9
78479;SHT31;67769;51.972;5.668;2023-05-02T21:18:03;12.6;47.7
78479;SHT31;67769;51.972;5.668;2023-05-02T21:20:33;12.6;47.7
78479;SHT31;67769;51.972;5.668;2023-05-02T21:23:05;12.6;47.9
78479;SHT31;67769;51.972;5.668;2023-05-02T21:25:37;12.6;47.5
78479;SHT31;67769;51.972;5.668;2023-05-02T21:28:09;12.6;48.1
78479;SHT31;67769;51.972;5.668;2023-05-02T21:30:39;12.6;47.8
78479;SHT31;67769;51.972;5.668;2023-05-02T21:33:09;12.5;47.7
78479;SHT31;67769;51.972;5.668;2023-05-02T21:35:39;12.5;47.9
78479;SHT31;67769;51.972;5.668;2023-05-02T21:38:11;12.5;47.5
78479;SHT31;67769;51.972;5.668;2023-05-02T21:40:42;12.5;47.6
78479;SHT31;67769;51.972;5.668;2023-05-02T21:43:14;12.5;47.8
78479;SHT31;67769;51.972;5.668;2023-05-02T21:45:44;12.5;47.4
78479;SHT31;67769;51.972;5.668;2023-05-02T21:48:15;12.5;47.6
78479;SHT31;67769;51.972;5.668;2023-05-02T21:50:45;12.5;47.7
78479;SHT31;67769;51.972;5.668;2023-05-02T21:53:15;12.5;48.3
78479;SHT31;67769;51.972;5.668;2023-05-02T21:55:44;12.5;48.1
78479;SHT31;67769;51.972;5.668;2023-05-02T21:58:14;12.5;46.9
78479;SHT31;67769;51.972;5.668;2023-05-02T22:00:43;12.5;47.0
78479;SHT31;67769;51.972;5.668;2023-05-02T22:03:13;12.4;47.3
78479;SHT31;67769;51.972;5.668;2023-05-02T22:05:43;12.4;47.7
78479;SHT31;67769;51.972;5.668;2023-05-02T22:08:17;12.4;47.7
78479;SHT31;67769;51.972;5.668;2023-05-02T22:10:48;12.3;46.9
78479;SHT31;67769;51.972;5.668;2023-05-02T22:13:19;12.3;47.2
78479;SHT31;67769;51.972;5.668;2023-05-02T22:15:50;12.2;47.8
78479;SHT31;67769;51.972;5.668;2023-05-02T22:18:20;12.2;47.4
78479;SHT31;67769;51.972;5.668;2023-05-02T22:20:49;12.1;48.5
78479;SHT31;67769;51.972;5.668;2023-05-02T22:23:20;12.0;48.2
78479;SHT31;67769;51.972;5.668;2023-05-02T22:25:52;12.0;48.5
78479;SHT31;67769;51.972;5.668;2023-05-02T22:28:22;11.9;48.3
78479;SHT31;67769;51.972;5.668;2023-05-02T22:30:51;11.9;47.5
78479;SHT31;67769;51.972;5.668;2023-05-02T22:33:22;11.8;47.9
78479;SHT31;67769;51.972;5.668;2023-05-02T22:35:51;11.7;48.2
78479;SHT31;67769;51.972;5.668;2023-05-02T22:38:22;11.7;48.5
78479;SHT31;67769;51.972;5.668;2023-05-02T22:40:51;11.6;48.5
78479;SHT31;67769;51.972;5.668;2023-05-02T22:43:21;11.6;47.8
78479;SHT31;67769;51.972;5.668;2023-05-02T22:45:51;11.5;47.8
78479;SHT31;67769;51.972;5.668;2023-05-02T22:48:20;11.5;47.9
78479;SHT31;67769;51.972;5.668;2023-05-02T22:50:50;11.4;48.1
78479;SHT31;67769;51.972;5.668;2023-05-02T22:53:20;11.4;47.9
78479;SHT31;67769;51.972;5.668;2023-05-02T22:55:50;11.3;48.1
78479;SHT31;67769;51.972;5.668;2023-05-02T22:58:20;11.3;47.8
78479;SHT31;67769;51.972;5.668;2023-05-02T23:00:50;11.2;48.0
78479;SHT31;67769;51.972;5.668;2023-05-02T23:03:19;11.2;48.3
78479;SHT31;67769;51.972;5.668;2023-05-02T23:05:49;11.1;48.5
78479;SHT31;67769;51.972;5.668;2023-05-02T23:08:19;11.1;48.7
78479;SHT31;67769;51.972;5.668;2023-05-02T23:10:49;11.0;49.1
78479;SHT31;67769;51.972;5.668;2023-05-02T23:13:18;11.0;49.2
78479;SHT31;67769;51.972;5.668;2023-05-02T23:15:51;11.0;49.3
78479;SHT31;67769;51.972;5.668;2023-05-02T23:18:21;11.0;49.6
78479;SHT31;67769;51.972;5.668;2023-05-02T23:20:51;11.0;49.3
78479;SHT31;67769;51.972;5.668;2023-05-02T23:23:20;11.0;49.4
78479;SHT31;67769;51.972;5.668;2023-05-02T23:25:50;11.0;49.6
78479;SHT31;67769;51.972;5.668;2023-05-02T23:28:19;10.9;50.0
78479;SHT31;67769;51.972;5.668;2023-05-02T23:30:49;10.9;49.9
78479;SHT31;67769;51.972;5.668;2023-05-02T23:33:20;10.9;49.9
78479;SHT31;67769;51.972;5.668;2023-05-02T23:35:49;10.9;50.1
78479;SHT31;67769;51.972;5.668;2023-05-02T23:38:19;10.9;50.2
78479;SHT31;67769;51.972;5.668;2023-05-02T23:40:50;10.9;50.1
78479;SHT31;67769;51.972;5.668;2023-05-02T23:43:21;10.9;50.1
78479;SHT31;67769;51.972;5.668;2023-05-02T23:45:51;10.9;50.4
78479;SHT31;67769;51.972;5.668;2023-05-02T23:48:21;10.9;49.9
78479;SHT31;67769;51.972;5.668;2023-05-02T23:50:50;10.9;50.6
78479;SHT31;67769;51.972;5.668;2023-05-02T23:53:22;10.9;50.3
78479;SHT31;67769;51.972;5.668;2023-05-02T23:55:52;10.9;50.5
78479;SHT31;67769;51.972;5.668;2023-05-02T23:58:22;10.9;50.1
